Time;durP1;ratioP1;P1;durP2;ratioP2;P2;SDS_P1;SDS_P2;PMS_P1;PMS_P2;Temp;Humidity;BMP_temperature;BMP_pressure;BME280_temperature;BME280_humidity;BME280_pressure;Samples;Min_cycle;Max_cycle;Signal;HPM_P1;HPM_P2
2021/06/15 00:00:42;;;;;;;1.57;1.07;;;21.20;99.90;;;;;;5053325;28;20231;-73
2021/06/15 00:03:08;;;;;;;2.07;1.30;;;21.20;99.90;;;;;;5051559;28;20175;-73
2021/06/15 00:05:34;;;;;;;2.77;1.53;;;21.10;99.90;;;;;;5052163;28;20632;-74
2021/06/15 00:07:59;;;;;;;2.80;0.93;;;21.10;99.90;;;;;;5053261;28;20206;-73
2021/06/15 00:10:26;;;;;;;2.00;1.27;;;21.10;99.90;;;;;;5052404;28;20267;-73
2021/06/15 00:12:53;;;;;;;1.67;1.20;;;21.00;99.90;;;;;;5051438;28;20175;-73
2021/06/15 00:15:20;;;;;;;1.20;1.00;;;21.00;99.90;;;;;;5053074;28;20437;-73
2021/06/15 00:17:46;;;;;;;0.90;0.80;;;21.00;99.90;;;;;;5051976;28;20449;-74
2021/06/15 00:20:13;;;;;;;1.83;1.17;;;21.00;99.90;;;;;;5052656;28;20437;-73
2021/06/15 00:22:39;;;;;;;0.97;0.87;;;20.90;99.90;;;;;;5052648;28;20777;-73
2021/06/15 00:25:06;;;;;;;1.63;1.47;;;20.90;99.90;;;;;;5052731;28;20405;-73
2021/06/15 00:27:32;;;;;;;1.20;1.10;;;20.80;99.90;;;;;;5055287;28;20461;-74
2021/06/15 00:29:58;;;;;;;1.97;1.30;;;20.80;99.90;;;;;;5044069;28;20895;-74
2021/06/15 00:32:24;;;;;;;2.17;1.43;;;20.70;99.90;;;;;;5048051;28;20166;-73
2021/06/15 00:34:50;;;;;;;1.73;1.10;;;20.70;99.90;;;;;;5056059;28;20420;-74
2021/06/15 00:37:15;;;;;;;2.03;1.60;;;20.70;99.90;;;;;;5055495;28;20441;-74
2021/06/15 00:39:41;;;;;;;4.00;2.60;;;20.70;99.90;;;;;;5088156;28;20189;-74
2021/06/15 00:42:07;;;;;;;1.20;1.07;;;20.70;99.90;;;;;;5054121;28;20197;-73
2021/06/15 00:44:35;;;;;;;1.50;0.97;;;20.60;99.90;;;;;;5051740;28;20197;-74
2021/06/15 00:47:00;;;;;;;1.83;1.00;;;20.60;99.90;;;;;;5051560;28;20470;-73
2021/06/15 00:49:30;;;;;;;2.43;1.53;;;20.60;99.90;;;;;;5051168;28;21029;-73
2021/06/15 00:51:56;;;;;;;2.17;1.27;;;20.50;99.90;;;;;;5052371;28;20170;-73
2021/06/15 00:54:23;;;;;;;1.10;1.00;;;20.50;99.90;;;;;;5052568;28;20429;-74
2021/06/15 00:56:54;;;;;;;1.57;0.97;;;20.50;99.90;;;;;;5055551;28;20433;-74
2021/06/15 00:59:20;;;;;;;1.30;1.20;;;20.50;99.90;;;;;;5051503;28;20437;-74
2021/06/15 01:01:46;;;;;;;1.47;1.37;;;20.40;99.90;;;;;;5050880;28;20432;-73
2021/06/15 01:04:13;;;;;;;2.57;1.40;;;20.40;99.90;;;;;;5051572;28;20182;-74
2021/06/15 01:07:09;;;;;;;1.90;1.33;;;20.40;99.90;;;;;;5047181;28;20464;-74
2021/06/15 01:10:09;;;;;;;1.23;1.13;;;20.40;99.90;;;;;;5051661;28;20559;-73
2021/06/15 01:12:37;;;;;;;1.67;1.33;;;20.30;99.90;;;;;;5049800;28;20765;-73
2021/06/15 01:15:17;;;;;;;1.90;1.67;;;20.30;99.90;;;;;;5053579;28;20406;-74
2021/06/15 01:17:59;;;;;;;1.63;1.53;;;20.30;99.90;;;;;;5053402;28;20444;-74
2021/06/15 01:20:34;;;;;;;2.17;1.53;;;20.20;99.90;;;;;;5087388;28;20429;-74
2021/06/15 01:23:10;;;;;;;2.50;1.73;;;20.20;99.90;;;;;;5055127;28;20425;-74
2021/06/15 01:25:41;;;;;;;1.30;1.20;;;20.10;99.90;;;;;;5054107;28;20435;-74
2021/06/15 01:28:15;;;;;;;2.40;1.53;;;20.10;99.90;;;;;;5054731;28;20409;-74
2021/06/15 01:30:48;;;;;;;0.93;0.77;;;20.10;99.90;;;;;;5049069;28;20790;-74
2021/06/15 01:33:15;;;;;;;2.60;1.70;;;20.10;99.90;;;;;;5053638;28;20771;-74
2021/06/15 01:35:41;;;;;;;1.50;1.40;;;20.10;99.90;;;;;;5050362;28;20431;-73
2021/06/15 01:38:11;;;;;;;2.40;1.13;;;20.00;99.90;;;;;;5050433;28;20429;-73
2021/06/15 01:40:41;;;;;;;2.17;0.90;;;20.10;99.90;;;;;;5052314;28;20174;-73
2021/06/15 01:43:17;;;;;;;2.07;1.50;;;20.00;99.90;;;;;;5087544;28;20437;-73
2021/06/15 01:45:47;;;;;;;1.60;1.30;;;20.00;99.90;;;;;;5055045;28;20432;-73
2021/06/15 01:48:15;;;;;;;1.10;1.00;;;20.00;99.90;;;;;;5054996;28;20436;-73
2021/06/15 01:50:43;;;;;;;2.03;1.37;;;20.00;99.90;;;;;;5055595;28;20984;-73
2021/06/15 01:53:13;;;;;;;2.60;1.13;;;20.00;99.90;;;;;;5053987;28;20429;-73
2021/06/15 01:55:45;;;;;;;4.57;1.63;;;20.00;99.90;;;;;;5053734;28;20520;-74
2021/06/15 01:58:11;;;;;;;1.37;1.27;;;19.90;99.90;;;;;;5046583;28;20425;-74
2021/06/15 02:00:37;;;;;;;1.50;1.40;;;19.90;99.90;;;;;;5056402;28;20429;-73
2021/06/15 02:03:05;;;;;;;1.17;1.07;;;19.90;99.90;;;;;;5059000;28;20440;-74
2021/06/15 02:05:41;;;;;;;2.40;2.20;;;19.80;99.90;;;;;;5058623;28;20179;-74
2021/06/15 02:08:11;;;;;;;1.73;1.63;;;19.80;99.90;;;;;;5055496;28;20836;-73
2021/06/15 02:10:37;;;;;;;3.97;3.03;;;19.70;99.90;;;;;;5053309;28;20504;-73
2021/06/15 02:13:04;;;;;;;1.67;1.57;;;19.70;99.90;;;;;;5056328;28;20435;-74
2021/06/15 02:15:33;;;;;;;1.37;1.27;;;19.70;99.90;;;;;;5058836;28;20397;-74
2021/06/15 02:18:01;;;;;;;1.47;1.37;;;19.60;99.90;;;;;;5069029;28;20441;-74
2021/06/15 02:20:34;;;;;;;2.50;1.17;;;19.70;99.90;;;;;;5059112;28;20792;-74
2021/06/15 02:23:01;;;;;;;2.63;2.43;;;19.60;99.90;;;;;;5054709;28;20425;-74
2021/06/15 02:25:37;;;;;;;2.30;1.33;;;19.60;99.90;;;;;;5055895;28;20432;-74
2021/06/15 02:28:04;;;;;;;1.47;1.37;;;19.50;99.90;;;;;;5057007;28;20444;-73
2021/06/15 02:30:30;;;;;;;1.93;1.57;;;19.50;99.90;;;;;;5052059;28;20555;-73
2021/06/15 02:33:04;;;;;;;2.00;1.90;;;19.50;99.90;;;;;;5053090;28;20469;-74
2021/06/15 02:35:29;;;;;;;2.63;1.50;;;19.50;99.90;;;;;;5054804;28;20405;-74
2021/06/15 02:38:11;;;;;;;1.63;1.50;;;19.40;99.90;;;;;;5052143;28;20445;-74
2021/06/15 02:40:38;;;;;;;3.07;1.80;;;19.40;99.90;;;;;;5054965;28;20171;-74
2021/06/15 02:43:05;;;;;;;2.77;2.30;;;19.40;99.90;;;;;;5054271;28;20437;-73
2021/06/15 02:45:32;;;;;;;6.97;1.97;;;19.40;99.90;;;;;;5054692;28;20969;-74
2021/06/15 02:48:01;;;;;;;2.80;2.20;;;19.40;99.90;;;;;;5051769;28;20461;-73
2021/06/15 02:50:29;;;;;;;2.03;1.90;;;19.40;99.90;;;;;;5057891;28;20455;-75
2021/06/15 02:53:10;;;;;;;1.53;1.10;;;19.40;99.90;;;;;;5055152;28;20437;-74
2021/06/15 02:55:48;;;;;;;1.70;1.60;;;19.40;99.90;;;;;;5057423;28;20766;-74
2021/06/15 02:58:14;;;;;;;2.60;2.30;;;19.30;99.90;;;;;;5057058;28;20444;-74
2021/06/15 03:00:39;;;;;;;2.23;1.57;;;19.30;99.90;;;;;;5053106;28;20429;-73
2021/06/15 03:03:06;;;;;;;1.30;1.20;;;19.30;99.90;;;;;;5053058;28;20540;-74
2021/06/15 03:05:33;;;;;;;2.43;2.23;;;19.20;99.90;;;;;;5058448;28;20167;-74
2021/06/15 03:07:58;;;;;;;1.90;1.23;;;19.20;99.90;;;;;;5089255;28;20997;-73
2021/06/15 03:10:25;;;;;;;4.10;1.73;;;19.30;99.90;;;;;;5053299;28;20457;-74
2021/06/15 03:13:06;;;;;;;1.67;1.47;;;19.20;99.90;;;;;;5053849;28;20719;-74
2021/06/15 03:15:50;;;;;;;3.03;2.10;;;19.30;99.90;;;;;;5042322;28;20432;-73
2021/06/15 03:18:30;;;;;;;1.00;0.90;;;19.20;99.90;;;;;;5053451;28;20444;-73
2021/06/15 03:20:58;;;;;;;2.87;1.73;;;19.20;99.90;;;;;;5086470;28;20917;-73
2021/06/15 03:23:33;;;;;;;1.20;1.10;;;19.20;99.90;;;;;;5052683;28;20949;-73
2021/06/15 03:26:03;;;;;;;2.50;1.37;;;19.20;99.90;;;;;;5055456;28;20432;-74
2021/06/15 03:28:31;;;;;;;2.13;1.93;;;19.10;99.90;;;;;;5056505;28;20437;-74
2021/06/15 03:30:58;;;;;;;1.93;1.60;;;19.10;99.90;;;;;;5054907;28;20389;-74
2021/06/15 03:33:24;;;;;;;1.90;1.80;;;19.10;99.90;;;;;;5051391;28;20797;-74
2021/06/15 03:35:53;;;;;;;3.63;2.10;;;19.10;99.90;;;;;;5052716;28;20425;-74
2021/06/15 03:38:19;;;;;;;1.77;1.20;;;19.10;99.90;;;;;;5052524;28;20186;-73
2021/06/15 03:40:48;;;;;;;1.43;1.33;;;19.10;99.90;;;;;;5053235;28;20421;-73
2021/06/15 03:43:16;;;;;;;8.93;2.90;;;19.10;99.90;;;;;;5052272;28;20435;-74
2021/06/15 03:45:46;;;;;;;1.80;1.70;;;19.00;99.90;;;;;;5053429;28;20857;-74
2021/06/15 03:48:12;;;;;;;3.30;2.27;;;19.00;99.90;;;;;;5052366;28;20543;-74
2021/06/15 03:50:39;;;;;;;2.43;1.90;;;19.00;99.90;;;;;;5056186;28;20497;-74
2021/06/15 03:53:08;;;;;;;0.90;0.70;;;19.00;99.90;;;;;;5055955;28;20425;-74
2021/06/15 03:55:37;;;;;;;9.80;2.20;;;18.90;99.90;;;;;;5056930;28;20398;-74
2021/06/15 03:58:05;;;;;;;3.73;1.53;;;18.90;99.90;;;;;;5055818;28;20449;-74
2021/06/15 04:00:32;;;;;;;1.30;1.20;;;18.90;99.90;;;;;;5088471;28;20443;-75
2021/06/15 04:03:03;;;;;;;2.00;1.87;;;18.90;99.90;;;;;;5056088;28;20468;-75
2021/06/15 04:05:31;;;;;;;3.53;2.60;;;18.90;99.90;;;;;;5053545;28;20773;-75
2021/06/15 04:08:00;;;;;;;3.93;2.40;;;18.90;99.90;;;;;;5055031;28;20460;-75
2021/06/15 04:10:27;;;;;;;3.63;1.90;;;18.90;99.90;;;;;;5054143;28;21001;-75
2021/06/15 04:12:55;;;;;;;3.50;2.00;;;19.00;99.90;;;;;;5054451;28;20437;-74
2021/06/15 04:15:22;;;;;;;1.87;1.70;;;19.00;99.90;;;;;;5055837;28;20432;-74
2021/06/15 04:17:50;;;;;;;6.07;3.53;;;19.00;99.90;;;;;;5055192;28;20457;-75
2021/06/15 04:20:23;;;;;;;2.90;2.00;;;18.90;99.90;;;;;;5086500;28;20471;-75
2021/06/15 04:22:51;;;;;;;1.47;1.30;;;19.00;99.90;;;;;;5060011;28;20437;-73
2021/06/15 04:25:23;;;;;;;1.73;1.63;;;19.00;99.90;;;;;;5093260;28;20531;-72
2021/06/15 04:27:50;;;;;;;8.60;3.37;;;19.00;99.90;;;;;;5087705;28;20483;-74
2021/06/15 04:30:19;;;;;;;2.47;1.60;;;19.00;99.90;;;;;;5087685;28;20457;-74
2021/06/15 04:32:57;;;;;;;4.50;2.60;;;19.00;99.90;;;;;;5053231;28;20460;-74
2021/06/15 04:35:29;;;;;;;3.70;2.13;;;19.00;99.90;;;;;;5053371;28;20421;-74
2021/06/15 04:38:00;;;;;;;1.60;1.50;;;19.00;99.90;;;;;;5052778;28;20453;-75
2021/06/15 04:40:40;;;;;;;2.17;1.43;;;19.10;99.90;;;;;;5054566;28;20393;-74
2021/06/15 04:43:31;;;;;;;1.87;1.17;;;19.10;99.90;;;;;;5053654;28;20429;-74
2021/06/15 04:46:07;;;;;;;3.73;2.47;;;19.20;99.90;;;;;;5053977;28;20471;-74
2021/06/15 04:48:33;;;;;;;3.23;1.60;;;19.20;99.90;;;;;;5051892;28;20441;-75
2021/06/15 04:51:01;;;;;;;2.27;2.10;;;19.20;99.90;;;;;;5086538;28;20456;-75
2021/06/15 04:53:36;;;;;;;8.70;3.60;;;19.20;99.90;;;;;;5068962;28;20452;-74
2021/06/15 04:56:04;;;;;;;2.87;1.67;;;19.20;99.90;;;;;;5052953;28;20463;-75
2021/06/15 04:58:32;;;;;;;2.00;1.73;;;19.20;99.90;;;;;;5086653;28;20444;-75
2021/06/15 05:01:00;;;;;;;2.37;2.17;;;19.30;99.90;;;;;;5052617;28;20576;-75
2021/06/15 05:03:30;;;;;;;4.60;3.00;;;19.30;99.90;;;;;;5085382;28;20567;-75
2021/06/15 05:06:02;;;;;;;2.07;1.90;;;19.30;99.90;;;;;;5086993;28;20491;-75
2021/06/15 05:08:30;;;;;;;3.77;2.53;;;19.40;99.90;;;;;;5085653;28;20526;-74
2021/06/15 05:10:58;;;;;;;1.83;1.73;;;19.40;99.90;;;;;;5053842;28;20418;-74
2021/06/15 05:13:25;;;;;;;3.60;2.23;;;19.40;99.90;;;;;;5086588;28;20433;-74
2021/06/15 05:15:53;;;;;;;2.77;2.20;;;19.40;99.90;;;;;;5053617;28;21048;-75
2021/06/15 05:18:23;;;;;;;4.03;2.47;;;19.40;99.90;;;;;;5053950;28;20520;-75
2021/06/15 05:20:49;;;;;;;1.43;1.33;;;19.50;99.90;;;;;;5054365;28;20417;-75
2021/06/15 05:23:20;;;;;;;1.87;1.73;;;19.50;99.90;;;;;;5052335;28;20440;-75
2021/06/15 05:25:48;;;;;;;2.77;2.20;;;19.50;99.90;;;;;;5054216;28;20402;-75
2021/06/15 05:28:15;;;;;;;3.70;3.20;;;19.60;99.90;;;;;;5052769;28;20433;-74
2021/06/15 05:30:40;;;;;;;4.77;2.23;;;19.60;99.90;;;;;;5085770;28;20500;-74
2021/06/15 05:33:06;;;;;;;5.70;2.97;;;19.80;99.90;;;;;;5047446;28;20434;-74
2021/06/15 05:35:32;;;;;;;1.87;1.53;;;19.80;99.90;;;;;;5049591;28;20183;-75
2021/06/15 05:37:57;;;;;;;9.80;4.70;;;19.90;99.90;;;;;;5053305;28;20218;-75
2021/06/15 05:40:23;;;;;;;3.77;2.93;;;20.00;99.90;;;;;;5052408;28;20633;-75
2021/06/15 05:42:49;;;;;;;2.80;1.80;;;20.10;99.90;;;;;;5051118;28;20191;-74
2021/06/15 05:45:15;;;;;;;5.97;2.97;;;20.20;99.90;;;;;;5051331;28;20183;-73
2021/06/15 05:47:43;;;;;;;4.97;2.50;;;20.30;99.90;;;;;;5051514;28;20194;-73
2021/06/15 05:50:09;;;;;;;2.03;1.93;;;20.30;99.90;;;;;;5050165;28;20469;-72
2021/06/15 05:52:35;;;;;;;2.50;2.30;;;20.40;99.90;;;;;;5051688;28;20433;-72
2021/06/15 05:55:02;;;;;;;1.67;1.50;;;20.50;99.90;;;;;;5051330;28;20491;-72
2021/06/15 05:57:30;;;;;;;4.53;3.93;;;20.70;99.90;;;;;;5083736;28;20456;-72
2021/06/15 05:59:57;;;;;;;3.47;1.50;;;20.80;99.90;;;;;;5048964;28;20445;-73
2021/06/15 06:02:22;;;;;;;2.20;2.00;;;20.90;99.90;;;;;;5052324;28;20424;-73
2021/06/15 06:05:02;;;;;;;3.53;3.13;;;21.10;99.90;;;;;;5050826;28;20413;-73
2021/06/15 06:10:12;;;;;;;5.33;1.87;;;21.30;99.90;;;;;;5052329;28;20511;-73
2021/06/15 06:12:38;;;;;;;2.07;1.53;;;21.40;99.90;;;;;;5052268;28;20449;-73
2021/06/15 06:15:06;;;;;;;2.23;2.00;;;21.50;99.90;;;;;;5048335;28;20179;-73
2021/06/15 06:17:32;;;;;;;2.90;1.93;;;21.70;99.90;;;;;;5049164;28;20854;-73
2021/06/15 06:19:58;;;;;;;3.80;1.93;;;21.90;99.90;;;;;;5051499;28;20512;-73
2021/06/15 06:22:23;;;;;;;3.27;2.73;;;22.00;99.90;;;;;;5051457;28;20435;-73
2021/06/15 06:24:50;;;;;;;3.63;2.03;;;22.20;99.90;;;;;;5050751;28;20190;-73
2021/06/15 06:27:15;;;;;;;3.77;2.10;;;22.40;99.90;;;;;;5052865;28;20797;-73
2021/06/15 06:29:41;;;;;;;2.90;1.77;;;22.60;99.90;;;;;;5052959;28;20537;-73
2021/06/15 06:32:07;;;;;;;2.63;2.20;;;22.80;99.90;;;;;;5056020;28;20167;-73
2021/06/15 06:34:33;;;;;;;1.77;1.30;;;23.10;99.90;;;;;;5053799;28;20551;-73
2021/06/15 06:36:58;;;;;;;4.43;2.67;;;23.40;99.90;;;;;;5053682;28;20602;-73
2021/06/15 06:39:24;;;;;;;3.60;2.80;;;23.60;99.90;;;;;;5054597;28;20187;-73
2021/06/15 06:41:50;;;;;;;2.33;2.13;;;23.80;99.90;;;;;;5055121;28;20553;-73
2021/06/15 06:44:17;;;;;;;6.67;1.47;;;24.00;99.90;;;;;;5040640;28;20186;-73
2021/06/15 06:46:42;;;;;;;2.03;1.83;;;24.30;99.90;;;;;;5054615;28;20461;-73
2021/06/15 06:49:08;;;;;;;2.07;1.60;;;24.50;99.90;;;;;;5052301;28;20983;-73
2021/06/15 06:51:34;;;;;;;2.20;2.00;;;24.60;99.90;;;;;;5054924;28;20261;-73
2021/06/15 06:54:00;;;;;;;1.83;1.40;;;24.80;99.90;;;;;;5055101;28;20163;-74
2021/06/15 06:56:26;;;;;;;3.23;2.00;;;24.90;99.90;;;;;;5054370;28;20479;-73
2021/06/15 06:58:52;;;;;;;1.93;1.53;;;25.10;99.90;;;;;;5055615;28;20174;-73
2021/06/15 07:01:19;;;;;;;1.80;1.40;;;25.30;99.90;;;;;;5053405;28;20464;-73
2021/06/15 07:03:44;;;;;;;3.10;2.37;;;25.50;99.90;;;;;;5053756;28;20186;-73
2021/06/15 07:06:10;;;;;;;2.30;1.13;;;25.50;99.90;;;;;;5055925;28;20425;-71
2021/06/15 07:08:35;;;;;;;2.30;1.30;;;25.70;99.90;;;;;;5055451;28;20167;-74
2021/06/15 07:11:02;;;;;;;1.20;1.10;;;25.80;99.90;;;;;;5055263;28;20167;-74
2021/06/15 07:13:27;;;;;;;3.67;1.40;;;26.00;99.90;;;;;;5056168;28;20174;-72
2021/06/15 07:15:53;;;;;;;2.13;1.90;;;26.30;99.90;;;;;;5055662;28;20410;-72
2021/06/15 07:18:18;;;;;;;2.87;2.67;;;26.40;99.90;;;;;;5056143;28;20535;-73
2021/06/15 07:20:44;;;;;;;3.30;1.63;;;26.50;99.90;;;;;;5055863;28;20212;-72
2021/06/15 07:23:09;;;;;;;2.13;2.03;;;26.70;99.90;;;;;;5054764;28;20246;-72
2021/06/15 07:25:35;;;;;;;1.97;1.87;;;26.80;99.90;;;;;;5054412;28;20179;-73
2021/06/15 07:28:01;;;;;;;3.37;1.77;;;26.90;99.90;;;;;;5053817;28;20671;-73
2021/06/15 07:30:27;;;;;;;2.10;1.93;;;27.10;99.90;;;;;;5054147;28;20456;-72
2021/06/15 07:32:57;;;;;;;4.30;1.93;;;27.30;99.90;;;;;;5054168;28;20401;-74
2021/06/15 07:35:26;;;;;;;3.20;2.20;;;27.30;99.90;;;;;;5086036;28;20202;-74
2021/06/15 07:37:52;;;;;;;2.40;1.57;;;27.40;99.90;;;;;;5052992;28;20864;-74
2021/06/15 07:40:24;;;;;;;4.63;2.00;;;27.60;99.90;;;;;;5054561;28;20409;-74
2021/06/15 07:42:55;;;;;;;2.03;1.40;;;27.80;99.90;;;;;;5053312;28;20432;-73
2021/06/15 07:45:24;;;;;;;2.97;1.63;;;28.00;99.90;;;;;;5053714;28;20408;-73
2021/06/15 07:47:50;;;;;;;2.53;1.60;;;28.10;99.90;;;;;;5052526;28;20433;-72
2021/06/15 07:50:16;;;;;;;2.00;1.90;;;28.20;99.90;;;;;;5053751;28;20472;-73
2021/06/15 07:52:42;;;;;;;2.00;1.80;;;28.50;99.90;;;;;;5053849;28;20182;-73
2021/06/15 07:55:09;;;;;;;2.30;1.60;;;28.70;99.90;;;;;;5053141;28;20425;-73
2021/06/15 07:57:35;;;;;;;1.77;1.40;;;28.80;99.90;;;;;;5053784;28;20445;-73
2021/06/15 08:00:00;;;;;;;2.57;2.37;;;29.00;99.90;;;;;;5053772;28;20831;-73
2021/06/15 08:02:28;;;;;;;3.30;2.13;;;29.00;99.90;;;;;;5053809;28;20167;-73
2021/06/15 08:04:54;;;;;;;1.77;0.90;;;29.10;99.90;;;;;;5052418;28;20174;-74
2021/06/15 08:07:19;;;;;;;3.10;2.07;;;29.10;99.90;;;;;;5053802;28;20440;-72
2021/06/15 08:09:45;;;;;;;2.00;1.80;;;29.40;99.90;;;;;;5052175;28;20540;-72
2021/06/15 08:12:11;;;;;;;1.90;1.70;;;29.40;99.90;;;;;;5053400;28;20171;-72
2021/06/15 08:14:36;;;;;;;1.60;1.50;;;29.60;99.90;;;;;;5053351;28;20216;-72
2021/06/15 08:17:02;;;;;;;1.00;0.90;;;29.90;99.90;;;;;;5085241;28;20194;-72
2021/06/15 08:19:28;;;;;;;1.97;1.87;;;30.00;99.90;;;;;;5053347;28;20201;-73
2021/06/15 08:21:53;;;;;;;2.27;1.43;;;30.10;99.90;;;;;;5053379;28;20747;-72
2021/06/15 08:24:19;;;;;;;2.23;1.60;;;30.10;99.90;;;;;;5053163;28;20166;-72
2021/06/15 08:26:45;;;;;;;1.67;1.57;;;30.40;99.90;;;;;;5052787;28;20194;-73
2021/06/15 08:29:11;;;;;;;1.83;1.50;;;30.60;99.90;;;;;;5085434;28;20205;-73
2021/06/15 08:31:36;;;;;;;1.60;1.50;;;30.60;99.90;;;;;;5053484;28;20401;-72
2021/06/15 08:34:02;;;;;;;2.27;2.03;;;30.80;99.90;;;;;;5053029;28;20202;-72
2021/06/15 08:36:28;;;;;;;1.67;1.50;;;31.00;99.90;;;;;;5051509;28;20202;-73
2021/06/15 08:38:54;;;;;;;1.20;1.10;;;31.00;99.90;;;;;;5052850;28;20405;-73
2021/06/15 08:41:21;;;;;;;1.43;1.30;;;31.30;99.90;;;;;;5053118;28;20674;-73
2021/06/15 08:43:48;;;;;;;2.07;1.60;;;31.50;99.90;;;;;;5053294;28;20174;-73
2021/06/15 08:46:15;;;;;;;1.40;1.30;;;31.70;99.90;;;;;;5053095;28;20429;-73
2021/06/15 08:48:41;;;;;;;2.10;1.90;;;32.10;99.90;;;;;;5052657;28;20471;-74
2021/06/15 08:51:07;;;;;;;1.40;1.27;;;32.20;99.40;;;;;;5052737;28;20413;-74
2021/06/15 08:53:33;;;;;;;1.30;1.20;;;32.10;99.90;;;;;;5052731;28;20167;-74
2021/06/15 08:56:09;;;;;;;2.17;1.13;;;32.40;99.90;;;;;;5052145;28;20246;-73
2021/06/15 08:58:51;;;;;;;1.27;1.17;;;32.40;97.80;;;;;;5052473;28;20584;-74
2021/06/15 09:01:17;;;;;;;1.07;0.97;;;32.70;93.00;;;;;;5051719;28;20483;-74
2021/06/15 09:03:44;;;;;;;3.23;2.00;;;32.90;92.30;;;;;;5051968;28;20429;-74
2021/06/15 09:06:09;;;;;;;1.03;0.93;;;33.00;91.80;;;;;;5051959;28;20236;-73
2021/06/15 09:09:01;;;;;;;1.00;0.80;;;33.00;88.60;;;;;;5052243;28;20417;-73
2021/06/15 09:11:50;;;;;;;1.40;1.00;;;33.20;89.30;;;;;;5050845;28;20187;-73
2021/06/15 09:14:16;;;;;;;1.43;1.33;;;33.50;86.20;;;;;;5052293;28;20393;-74
2021/06/15 09:16:46;;;;;;;1.43;1.23;;;33.70;85.10;;;;;;5051941;28;20445;-74
2021/06/15 09:19:23;;;;;;;1.37;1.00;;;33.80;82.40;;;;;;5052226;28;20413;-74
2021/06/15 09:21:52;;;;;;;1.33;1.03;;;34.00;82.00;;;;;;5052008;28;20530;-74
2021/06/15 09:24:24;;;;;;;1.00;0.83;;;34.10;84.40;;;;;;5052002;28;20410;-74
2021/06/15 09:27:01;;;;;;;1.20;1.10;;;34.00;78.20;;;;;;5051798;28;20417;-73
2021/06/15 09:29:50;;;;;;;1.40;1.23;;;34.10;79.20;;;;;;5052087;28;20777;-73
2021/06/15 09:32:30;;;;;;;1.47;1.37;;;34.10;76.90;;;;;;5051769;28;20463;-73
2021/06/15 09:35:00;;;;;;;1.03;0.93;;;34.10;78.30;;;;;;5084120;28;20437;-73
2021/06/15 09:37:26;;;;;;;1.63;1.53;;;34.30;78.00;;;;;;5051855;28;20906;-74
2021/06/15 09:39:52;;;;;;;1.90;1.03;;;34.50;76.60;;;;;;5051499;28;20474;-74
2021/06/15 09:42:17;;;;;;;1.20;1.10;;;34.20;77.20;;;;;;5051401;28;20512;-73
2021/06/15 09:44:45;;;;;;;1.20;1.07;;;34.40;77.10;;;;;;5051920;28;20175;-73
2021/06/15 09:47:11;;;;;;;1.10;1.00;;;34.30;72.10;;;;;;5051581;28;20228;-73
2021/06/15 09:49:37;;;;;;;1.53;1.43;;;34.40;75.10;;;;;;5051668;28;20480;-73
2021/06/15 09:52:16;;;;;;;1.17;1.07;;;34.40;75.50;;;;;;5051551;28;20171;-74
2021/06/15 09:54:53;;;;;;;1.33;1.23;;;34.20;75.20;;;;;;5051772;28;20650;-74
2021/06/15 09:57:28;;;;;;;2.20;1.90;;;34.50;75.40;;;;;;5050286;28;21007;-74
2021/06/15 10:00:16;;;;;;;1.50;1.07;;;34.50;73.50;;;;;;5051764;28;20397;-74
2021/06/15 10:02:48;;;;;;;1.37;1.27;;;34.40;70.70;;;;;;5055244;28;20412;-74
2021/06/15 10:05:22;;;;;;;1.20;1.00;;;34.30;71.60;;;;;;5055535;28;20914;-74
2021/06/15 10:07:49;;;;;;;1.30;1.20;;;34.00;72.40;;;;;;5055381;28;20476;-73
2021/06/15 10:10:19;;;;;;;1.70;1.13;;;33.90;72.60;;;;;;5054193;28;20862;-73
2021/06/15 10:12:47;;;;;;;1.30;1.07;;;33.80;76.10;;;;;;5055356;28;20773;-74
2021/06/15 10:15:13;;;;;;;1.87;0.93;;;33.80;74.70;;;;;;5054767;28;20409;-73
2021/06/15 10:17:41;;;;;;;1.43;1.33;;;34.10;74.30;;;;;;5054901;28;20505;-72
2021/06/15 10:20:07;;;;;;;1.10;1.00;;;34.20;73.20;;;;;;5053442;28;20421;-72
2021/06/15 10:22:32;;;;;;;1.67;1.30;;;34.40;73.30;;;;;;5043342;28;20769;-72
2021/06/15 10:24:58;;;;;;;1.60;1.23;;;34.50;72.30;;;;;;5045681;28;20414;-72
2021/06/15 10:27:24;;;;;;;1.83;1.67;;;34.60;72.30;;;;;;5049579;28;20194;-72
2021/06/15 10:29:52;;;;;;;1.00;0.90;;;34.60;70.60;;;;;;5054987;28;20452;-72
2021/06/15 10:32:22;;;;;;;1.20;1.10;;;34.70;70.60;;;;;;5055490;28;20167;-73
2021/06/15 10:35:04;;;;;;;1.40;1.10;;;34.90;70.50;;;;;;5054788;28;20428;-73
2021/06/15 10:37:33;;;;;;;1.20;1.00;;;35.20;69.70;;;;;;5054720;28;20439;-72
2021/06/15 10:40:01;;;;;;;1.30;1.03;;;35.40;67.90;;;;;;5055017;28;20417;-72
2021/06/15 10:42:27;;;;;;;2.73;1.50;;;35.20;65.90;;;;;;5055192;28;20406;-72
2021/06/15 10:45:11;;;;;;;1.53;1.40;;;35.10;67.50;;;;;;5054515;28;20416;-72
2021/06/15 10:47:37;;;;;;;4.77;1.50;;;35.00;68.70;;;;;;5054823;28;20183;-72
2021/06/15 10:50:03;;;;;;;1.40;1.30;;;34.90;65.80;;;;;;5054720;28;20468;-73
2021/06/15 10:52:59;;;;;;;1.00;0.90;;;34.90;70.10;;;;;;5054581;28;20405;-72
2021/06/15 10:55:45;;;;;;;1.10;1.00;;;34.70;68.10;;;;;;5054225;28;21001;-73
2021/06/15 10:58:11;;;;;;;1.77;1.37;;;34.90;66.90;;;;;;5054182;28;20471;-72
2021/06/15 11:00:47;;;;;;;1.20;1.10;;;34.90;66.00;;;;;;5054288;28;20445;-72
2021/06/15 11:03:22;;;;;;;1.50;1.20;;;35.00;67.30;;;;;;5054659;28;20956;-72
2021/06/15 11:05:56;;;;;;;1.60;0.93;;;35.10;66.80;;;;;;5051654;28;20415;-73
2021/06/15 11:08:28;;;;;;;1.80;1.10;;;35.30;65.50;;;;;;5054255;28;20475;-72
2021/06/15 11:10:55;;;;;;;2.27;1.77;;;35.30;60.70;;;;;;5054399;28;20449;-72
2021/06/15 11:13:40;;;;;;;1.20;0.90;;;35.30;61.60;;;;;;5054427;28;20909;-73
2021/06/15 11:16:06;;;;;;;1.10;0.90;;;35.20;60.70;;;;;;5052863;28;20421;-73
2021/06/15 11:18:32;;;;;;;1.10;1.00;;;35.30;60.50;;;;;;5054232;28;20524;-72
2021/06/15 11:20:57;;;;;;;0.90;0.80;;;35.10;63.00;;;;;;5054185;28;20953;-73
2021/06/15 11:23:23;;;;;;;1.37;1.27;;;35.20;60.70;;;;;;5054235;28;20167;-73
2021/06/15 11:25:59;;;;;;;0.97;0.80;;;35.40;60.90;;;;;;5053765;28;20189;-73
2021/06/15 11:28:48;;;;;;;0.97;0.87;;;35.50;64.40;;;;;;5053818;28;20421;-72
2021/06/15 11:31:20;;;;;;;1.20;1.10;;;35.50;58.10;;;;;;5053924;28;20425;-72
2021/06/15 11:34:14;;;;;;;1.20;1.10;;;35.40;57.70;;;;;;5053145;28;20429;-74
2021/06/15 11:36:43;;;;;;;1.60;1.40;;;35.50;58.90;;;;;;5050634;28;20445;-73
2021/06/15 11:39:29;;;;;;;1.10;1.00;;;35.40;57.70;;;;;;5051534;28;20892;-73
2021/06/15 11:42:08;;;;;;;1.53;1.10;;;35.50;59.10;;;;;;5053937;28;20828;-74
2021/06/15 11:44:54;;;;;;;1.23;1.00;;;35.80;57.60;;;;;;5052216;28;20794;-74
2021/06/15 11:47:28;;;;;;;0.90;0.80;;;35.70;55.40;;;;;;5051696;28;20448;-74
2021/06/15 11:50:05;;;;;;;0.90;0.80;;;35.70;55.70;;;;;;5052854;28;21003;-74
2021/06/15 11:52:31;;;;;;;2.80;1.00;;;35.90;57.70;;;;;;5052740;28;20992;-73
2021/06/15 11:54:58;;;;;;;1.30;1.10;;;36.00;54.80;;;;;;5053391;28;20898;-73
2021/06/15 11:57:25;;;;;;;1.10;1.00;;;35.90;55.20;;;;;;5052472;28;20445;-73
2021/06/15 11:59:50;;;;;;;1.10;1.00;;;35.90;54.90;;;;;;5052560;28;20443;-74
2021/06/15 12:02:20;;;;;;;1.30;0.93;;;36.00;55.20;;;;;;5051536;28;20429;-73
2021/06/15 12:05:04;;;;;;;1.10;1.00;;;35.80;55.80;;;;;;5051426;28;20171;-73
2021/06/15 12:07:31;;;;;;;1.20;0.87;;;35.60;57.00;;;;;;5050458;28;20465;-74
2021/06/15 12:10:14;;;;;;;1.23;0.97;;;35.60;56.00;;;;;;5051943;28;20504;-73
2021/06/15 12:12:59;;;;;;;0.93;0.83;;;35.60;56.80;;;;;;5052642;28;20487;-74
2021/06/15 12:15:35;;;;;;;1.00;0.90;;;35.50;56.90;;;;;;5051083;28;20440;-74
2021/06/15 12:18:05;;;;;;;0.97;0.87;;;35.70;55.70;;;;;;5031538;28;20467;-74
2021/06/15 12:20:33;;;;;;;1.10;1.00;;;36.00;56.30;;;;;;5050216;28;20457;-74
2021/06/15 12:23:02;;;;;;;1.00;0.83;;;36.20;55.60;;;;;;5051883;28;20486;-75
2021/06/15 12:25:30;;;;;;;2.80;0.90;;;36.20;55.00;;;;;;5050513;28;20435;-74
2021/06/15 12:28:12;;;;;;;1.27;0.97;;;36.20;53.10;;;;;;5052878;28;20421;-74
2021/06/15 12:30:42;;;;;;;0.90;0.77;;;36.00;52.40;;;;;;5050288;28;20457;-74
2021/06/15 12:33:08;;;;;;;2.83;0.90;;;36.00;52.30;;;;;;5050523;28;20945;-73
2021/06/15 12:35:34;;;;;;;1.37;1.00;;;36.10;54.30;;;;;;5047971;28;20524;-74
2021/06/15 12:38:10;;;;;;;1.00;0.90;;;35.90;53.40;;;;;;5052052;28;20557;-74
2021/06/15 12:40:39;;;;;;;1.10;1.00;;;35.90;52.90;;;;;;5051851;28;20437;-74
2021/06/15 12:43:06;;;;;;;1.40;1.30;;;35.80;53.70;;;;;;5051327;28;20440;-74
2021/06/15 12:45:37;;;;;;;0.90;0.80;;;35.40;53.60;;;;;;5050314;28;20440;-73
2021/06/15 12:48:19;;;;;;;1.00;0.90;;;35.20;55.20;;;;;;5046345;28;22311;-73
2021/06/15 12:50:45;;;;;;;1.00;0.90;;;35.20;53.90;;;;;;5051699;28;20456;-74
2021/06/15 12:53:11;;;;;;;1.60;1.30;;;35.20;55.30;;;;;;5052495;28;20409;-73
2021/06/15 12:55:43;;;;;;;1.03;0.83;;;35.30;53.80;;;;;;5049617;28;20433;-74
2021/06/15 12:58:11;;;;;;;1.10;0.90;;;35.00;54.50;;;;;;5052547;28;20238;-74
2021/06/15 13:00:41;;;;;;;1.30;1.17;;;35.00;54.00;;;;;;5050304;28;20442;-74
2021/06/15 13:03:08;;;;;;;1.07;0.77;;;34.90;54.00;;;;;;5051620;28;20403;-74